Time;durP1;ratioP1;P1;durP2;ratioP2;P2;SDS_P1;SDS_P2;PMS_P1;PMS_P2;Temp;Humidity;BMP_temperature;BMP_pressure;BME280_temperature;BME280_humidity;BME280_pressure;Samples;Min_cycle;Max_cycle;Signal;HPM_P1;HPM_P2
2021/03/15 00:00:54;;;;;;;5.50;3.13;;;7.30;99.90;;;;;;5111175;28;20261;-58
2021/03/15 00:03:21;;;;;;;4.37;3.00;;;7.10;99.90;;;;;;5111147;28;20228;-60
2021/03/15 00:05:48;;;;;;;4.30;2.70;;;7.00;99.90;;;;;;5111354;28;20671;-59
2021/03/15 00:08:14;;;;;;;3.87;2.73;;;6.80;99.90;;;;;;5111121;28;20240;-59
2021/03/15 00:10:40;;;;;;;3.13;2.83;;;6.70;99.90;;;;;;5111156;28;20715;-58
2021/03/15 00:13:07;;;;;;;3.57;2.70;;;6.70;99.90;;;;;;5111204;28;20671;-59
2021/03/15 00:15:34;;;;;;;5.03;2.60;;;6.70;99.90;;;;;;5111128;28;20215;-59
2021/03/15 00:18:01;;;;;;;3.33;2.50;;;6.70;99.90;;;;;;5111138;28;20207;-60
2021/03/15 00:20:27;;;;;;;4.97;3.33;;;6.70;99.90;;;;;;5111264;28;20264;-60
2021/03/15 00:22:55;;;;;;;3.23;2.93;;;6.70;99.90;;;;;;5111280;28;20208;-59
2021/03/15 00:25:21;;;;;;;5.60;3.13;;;6.80;99.90;;;;;;5111128;28;20211;-61
2021/03/15 00:27:48;;;;;;;4.43;2.87;;;6.80;99.90;;;;;;5110929;28;20212;-60
2021/03/15 00:30:16;;;;;;;4.77;2.90;;;6.80;99.90;;;;;;5111107;28;20667;-59
2021/03/15 00:32:44;;;;;;;5.37;3.00;;;6.70;99.90;;;;;;5111163;28;20200;-58
2021/03/15 00:35:12;;;;;;;6.10;3.33;;;6.70;99.90;;;;;;5111168;28;20207;-59
2021/03/15 00:37:39;;;;;;;3.90;3.40;;;6.80;99.90;;;;;;5111225;28;20246;-59
2021/03/15 00:40:09;;;;;;;4.77;2.77;;;6.80;99.90;;;;;;5111029;28;20267;-59
2021/03/15 00:42:35;;;;;;;4.77;3.20;;;6.70;99.90;;;;;;5111059;28;20207;-59
2021/03/15 00:45:03;;;;;;;5.40;3.23;;;6.60;99.90;;;;;;5111319;28;20200;-59
2021/03/15 00:47:29;;;;;;;7.93;3.07;;;6.60;99.90;;;;;;5111241;28;20578;-59
2021/03/15 00:49:55;;;;;;;5.97;3.47;;;6.60;99.90;;;;;;5110914;28;20269;-59
2021/03/15 00:52:21;;;;;;;3.77;3.40;;;6.70;99.90;;;;;;5110839;28;20725;-58
2021/03/15 00:54:47;;;;;;;4.60;3.43;;;6.70;99.90;;;;;;5110673;28;20511;-59
2021/03/15 00:57:14;;;;;;;5.43;3.83;;;6.80;99.90;;;;;;5110860;28;20214;-59
2021/03/15 00:59:41;;;;;;;6.23;3.63;;;6.80;99.90;;;;;;5114108;28;20244;-60
2021/03/15 01:02:07;;;;;;;7.40;3.60;;;6.90;99.90;;;;;;5114611;28;20231;-58
2021/03/15 01:04:33;;;;;;;6.73;3.50;;;6.90;99.90;;;;;;5114360;28;20693;-60
2021/03/15 01:06:59;;;;;;;5.83;3.90;;;6.90;99.90;;;;;;5114678;28;20214;-59
2021/03/15 01:09:25;;;;;;;5.07;3.80;;;7.00;99.90;;;;;;5114253;28;20224;-59
2021/03/15 01:11:52;;;;;;;5.20;3.93;;;7.00;99.90;;;;;;5114506;28;20247;-60
2021/03/15 01:14:19;;;;;;;7.60;3.97;;;7.00;99.90;;;;;;5114476;28;20204;-60
2021/03/15 01:16:45;;;;;;;4.10;3.30;;;7.10;99.90;;;;;;5114299;28;20573;-57
2021/03/15 01:19:11;;;;;;;4.73;3.67;;;6.90;99.90;;;;;;5114367;28;20252;-58
2021/03/15 01:21:37;;;;;;;5.43;4.40;;;6.80;99.90;;;;;;5114491;28;20231;-58
2021/03/15 01:24:04;;;;;;;7.27;4.50;;;6.80;99.90;;;;;;5114002;28;20608;-60
2021/03/15 01:26:30;;;;;;;5.27;3.80;;;6.70;99.90;;;;;;5113943;28;20207;-61
2021/03/15 01:28:58;;;;;;;6.37;4.30;;;6.60;99.90;;;;;;5114063;28;20227;-58
2021/03/15 01:31:26;;;;;;;6.60;5.00;;;6.60;99.90;;;;;;5114232;28;20646;-58
2021/03/15 01:33:52;;;;;;;7.87;5.27;;;6.70;99.90;;;;;;5114308;28;20207;-60
2021/03/15 01:36:18;;;;;;;5.93;4.70;;;6.60;99.90;;;;;;5114354;28;20690;-57
2021/03/15 01:38:44;;;;;;;6.07;4.60;;;6.70;99.90;;;;;;5115096;28;20207;-59
2021/03/15 01:41:11;;;;;;;10.27;5.30;;;6.80;99.90;;;;;;5114495;28;20237;-59
2021/03/15 01:43:37;;;;;;;7.23;4.50;;;6.80;99.90;;;;;;5113978;27;20199;-59
2021/03/15 01:46:03;;;;;;;5.67;4.00;;;6.80;99.90;;;;;;5113896;28;20211;-58
2021/03/15 01:48:30;;;;;;;5.20;3.63;;;6.80;99.90;;;;;;5113792;28;20230;-57
2021/03/15 01:50:57;;;;;;;7.77;4.37;;;6.90;99.90;;;;;;5113684;28;20223;-58
2021/03/15 01:53:23;;;;;;;5.57;4.03;;;6.90;99.90;;;;;;5113854;28;20204;-58
2021/03/15 01:55:50;;;;;;;6.97;3.70;;;7.00;99.90;;;;;;5113432;27;20582;-58
2021/03/15 01:58:17;;;;;;;7.50;3.20;;;7.00;99.90;;;;;;5113477;28;20204;-58
2021/03/15 02:00:44;;;;;;;7.37;3.10;;;7.00;99.90;;;;;;5113236;28;20734;-57
2021/03/15 02:03:11;;;;;;;7.37;3.20;;;7.10;99.90;;;;;;5113536;28;20199;-58
2021/03/15 02:05:40;;;;;;;6.37;3.90;;;7.00;99.90;;;;;;5113282;28;20203;-58
2021/03/15 02:08:08;;;;;;;7.27;3.77;;;7.10;99.90;;;;;;5113505;28;20237;-58
2021/03/15 02:10:34;;;;;;;4.70;3.63;;;7.20;99.90;;;;;;5112613;28;20295;-58
2021/03/15 02:13:14;;;;;;;5.80;3.50;;;7.30;99.90;;;;;;5113522;28;20199;-58
2021/03/15 02:15:47;;;;;;;6.27;3.50;;;7.20;99.90;;;;;;5113026;28;20253;-60
2021/03/15 02:18:26;;;;;;;6.07;3.37;;;7.20;99.90;;;;;;5113035;28;20215;-59
2021/03/15 02:21:41;;;;;;;4.13;3.10;;;7.30;99.90;;;;;;5113026;28;20235;-61
2021/03/15 02:24:13;;;;;;;4.30;3.17;;;7.10;99.90;;;;;;5112976;28;20628;-58
2021/03/15 02:27:28;;;;;;;5.57;3.53;;;7.10;99.90;;;;;;5112929;28;20675;-56
2021/03/15 02:30:41;;;;;;;4.37;3.00;;;7.00;99.90;;;;;;5112871;28;20276;-57
2021/03/15 02:33:53;;;;;;;5.90;3.10;;;7.00;99.90;;;;;;5112678;28;20210;-59
2021/03/15 02:36:23;;;;;;;7.83;3.00;;;6.70;99.90;;;;;;5113093;28;20207;-58
2021/03/15 02:38:50;;;;;;;5.90;3.47;;;6.60;99.90;;;;;;5112646;28;20206;-58
2021/03/15 02:41:19;;;;;;;5.07;3.00;;;6.60;99.90;;;;;;5113017;28;20272;-57
2021/03/15 02:43:49;;;;;;;4.37;3.03;;;6.70;99.90;;;;;;5112413;28;20633;-59
2021/03/15 02:46:17;;;;;;;5.33;3.40;;;6.70;99.90;;;;;;5112542;27;20663;-58
2021/03/15 02:48:45;;;;;;;9.37;3.87;;;6.70;99.90;;;;;;5112317;28;20242;-58
2021/03/15 02:51:12;;;;;;;7.30;3.37;;;6.60;99.90;;;;;;5112511;28;20219;-57
2021/03/15 02:53:41;;;;;;;7.57;3.23;;;6.70;99.90;;;;;;5112418;28;20222;-58
2021/03/15 02:56:12;;;;;;;7.57;3.33;;;6.70;99.90;;;;;;5112326;28;20203;-57
2021/03/15 02:58:40;;;;;;;6.93;3.00;;;6.80;99.90;;;;;;5112888;28;20210;-57
2021/03/15 03:01:08;;;;;;;6.13;2.67;;;7.00;99.90;;;;;;5106461;22;548753;-60
2021/03/15 03:03:37;;;;;;;4.97;3.00;;;7.10;99.90;;;;;;5071721;28;20216;-60
2021/03/15 03:06:05;;;;;;;6.87;3.07;;;7.10;99.90;;;;;;5072037;28;20213;-60
2021/03/15 03:08:32;;;;;;;4.37;2.77;;;6.90;99.90;;;;;;5071369;28;20269;-60
2021/03/15 03:10:59;;;;;;;5.23;3.00;;;6.80;99.90;;;;;;5071633;28;20232;-60
2021/03/15 03:13:26;;;;;;;5.70;2.97;;;6.70;99.90;;;;;;5071292;28;20209;-60
2021/03/15 03:15:56;;;;;;;4.07;3.27;;;6.60;99.90;;;;;;5071472;28;20209;-61
2021/03/15 03:18:24;;;;;;;4.00;2.83;;;6.60;99.90;;;;;;5071452;28;20211;-60
2021/03/15 03:20:53;;;;;;;6.67;3.30;;;6.50;99.90;;;;;;5071490;28;20704;-60
2021/03/15 03:23:22;;;;;;;4.73;3.13;;;6.40;99.90;;;;;;5071182;28;20205;-60
2021/03/15 03:25:49;;;;;;;5.70;3.20;;;6.30;99.90;;;;;;5071206;28;20684;-60
2021/03/15 03:28:18;;;;;;;6.70;2.90;;;6.20;99.90;;;;;;5071144;28;20208;-60
2021/03/15 03:30:45;;;;;;;4.50;3.30;;;6.00;99.90;;;;;;5071233;28;20228;-60
2021/03/15 03:33:13;;;;;;;4.27;3.13;;;5.90;99.90;;;;;;5071302;28;20205;-60
2021/03/15 03:35:42;;;;;;;8.27;3.17;;;5.80;99.90;;;;;;5070877;28;20204;-60
2021/03/15 03:38:08;;;;;;;6.80;3.73;;;5.60;99.90;;;;;;5070958;28;20685;-60
2021/03/15 03:40:34;;;;;;;6.20;4.03;;;5.40;99.90;;;;;;5071138;28;20209;-61
2021/03/15 03:43:01;;;;;;;5.83;3.70;;;5.30;99.90;;;;;;5071089;28;20216;-60
2021/03/15 03:45:28;;;;;;;6.23;3.30;;;5.10;99.90;;;;;;5071050;28;20209;-60
2021/03/15 03:47:54;;;;;;;6.20;3.20;;;5.10;99.90;;;;;;5070821;28;20242;-60
2021/03/15 03:50:22;;;;;;;7.37;3.73;;;5.00;99.90;;;;;;5070863;28;20225;-60
2021/03/15 03:52:55;;;;;;;7.97;3.87;;;5.00;99.90;;;;;;5071255;28;20225;-60
2021/03/15 03:55:25;;;;;;;5.20;3.53;;;5.10;99.90;;;;;;5071026;28;20576;-60
2021/03/15 03:57:53;;;;;;;7.87;3.50;;;4.90;99.90;;;;;;5070925;28;20205;-59
2021/03/15 04:00:20;;;;;;;6.87;3.77;;;5.10;99.90;;;;;;5071007;28;20239;-60
2021/03/15 04:02:51;;;;;;;5.67;3.10;;;5.30;99.90;;;;;;5071051;28;20233;-59
2021/03/15 04:05:22;;;;;;;8.50;3.90;;;5.50;99.90;;;;;;5071053;28;20205;-60
2021/03/15 04:07:55;;;;;;;6.77;3.43;;;5.60;99.90;;;;;;5071171;28;20205;-60
2021/03/15 04:10:23;;;;;;;8.40;4.20;;;5.70;99.90;;;;;;5070828;28;20224;-60
2021/03/15 04:12:53;;;;;;;5.93;3.03;;;5.90;99.90;;;;;;5071361;28;20708;-60
2021/03/15 04:15:19;;;;;;;5.77;3.67;;;6.00;99.90;;;;;;5070625;28;20209;-60
2021/03/15 04:17:49;;;;;;;9.40;3.90;;;6.10;99.90;;;;;;5070875;28;20672;-60
2021/03/15 04:20:19;;;;;;;10.90;5.97;;;6.20;99.90;;;;;;5070827;28;20205;-60
2021/03/15 04:22:50;;;;;;;14.60;6.70;;;6.10;99.90;;;;;;5070718;28;20235;-60
2021/03/15 04:25:18;;;;;;;5.73;3.37;;;6.20;99.90;;;;;;5070849;28;20209;-60
2021/03/15 04:27:45;;;;;;;4.13;2.77;;;6.00;99.90;;;;;;5070494;28;20208;-60
2021/03/15 04:30:13;;;;;;;6.10;3.20;;;6.10;99.90;;;;;;5070706;28;20229;-60
2021/03/15 04:32:40;;;;;;;4.17;2.87;;;6.10;99.90;;;;;;5070963;28;20220;-60
2021/03/15 04:35:08;;;;;;;3.33;2.27;;;6.10;99.90;;;;;;5074438;28;20205;-60
2021/03/15 04:37:36;;;;;;;5.47;3.50;;;6.20;99.90;;;;;;5074600;28;20582;-59
2021/03/15 04:40:04;;;;;;;6.77;2.83;;;6.00;99.90;;;;;;5074372;28;20239;-60
2021/03/15 04:42:31;;;;;;;3.90;2.30;;;5.80;99.90;;;;;;5074185;28;20235;-60
2021/03/15 04:44:57;;;;;;;6.83;2.60;;;5.90;99.90;;;;;;5074391;28;20208;-60
2021/03/15 04:47:23;;;;;;;6.60;2.50;;;5.90;99.90;;;;;;5074611;28;20205;-60
2021/03/15 04:49:51;;;;;;;3.83;2.40;;;6.00;99.90;;;;;;5074351;28;20236;-60
2021/03/15 04:52:18;;;;;;;3.97;3.10;;;5.90;99.90;;;;;;5074198;28;20221;-60
2021/03/15 04:54:45;;;;;;;3.43;2.50;;;5.90;99.90;;;;;;5074077;28;20729;-59
2021/03/15 04:57:13;;;;;;;7.97;3.63;;;6.00;99.90;;;;;;5074106;28;20668;-60
2021/03/15 04:59:41;;;;;;;5.30;2.90;;;6.10;99.90;;;;;;5073955;28;20209;-60
2021/03/15 05:02:08;;;;;;;11.17;4.23;;;6.10;99.90;;;;;;5073958;28;20233;-60
2021/03/15 05:04:37;;;;;;;6.13;2.57;;;6.10;99.90;;;;;;5074077;28;20211;-60
2021/03/15 05:07:04;;;;;;;4.97;2.50;;;6.20;99.90;;;;;;5074071;28;20429;-60
2021/03/15 05:09:31;;;;;;;5.30;2.83;;;6.20;99.90;;;;;;5073745;28;20269;-60
2021/03/15 05:11:59;;;;;;;5.17;3.13;;;6.10;99.90;;;;;;5073848;28;20229;-59
2021/03/15 05:14:26;;;;;;;6.63;3.83;;;6.10;99.90;;;;;;5073808;28;20649;-60
2021/03/15 05:16:52;;;;;;;3.10;2.40;;;6.10;99.90;;;;;;5073888;28;20602;-60
2021/03/15 05:19:20;;;;;;;4.77;2.80;;;6.30;99.90;;;;;;5073909;28;20228;-60
2021/03/15 05:21:48;;;;;;;5.67;2.80;;;6.40;99.90;;;;;;5073894;28;20228;-61
2021/03/15 05:24:15;;;;;;;4.30;2.50;;;6.40;99.90;;;;;;5073642;28;20215;-61
2021/03/15 05:26:42;;;;;;;6.50;2.67;;;6.50;99.90;;;;;;5074410;28;20209;-61
2021/03/15 05:29:12;;;;;;;6.47;2.97;;;6.40;99.90;;;;;;5074081;28;20217;-60
2021/03/15 05:31:40;;;;;;;3.87;2.53;;;6.50;99.90;;;;;;5074176;28;20229;-60
2021/03/15 05:34:09;;;;;;;3.60;2.90;;;6.50;99.90;;;;;;5073716;28;20252;-60
2021/03/15 05:36:36;;;;;;;8.57;3.93;;;6.50;99.90;;;;;;5073573;28;20208;-60
2021/03/15 05:39:03;;;;;;;3.73;2.40;;;6.50;99.90;;;;;;5073763;28;20358;-61
2021/03/15 05:41:45;;;;;;;5.80;3.20;;;6.50;99.90;;;;;;5073859;28;20221;-60
2021/03/15 05:44:20;;;;;;;6.97;2.93;;;6.30;99.90;;;;;;5073160;28;20204;-60
2021/03/15 05:47:15;;;;;;;4.13;2.43;;;6.30;99.90;;;;;;5073384;28;20216;-60
2021/03/15 05:50:06;;;;;;;4.33;2.33;;;6.30;99.90;;;;;;5073893;28;20229;-60
2021/03/15 05:52:47;;;;;;;3.23;2.20;;;6.30;99.90;;;;;;5073362;28;20225;-60
2021/03/15 05:56:01;;;;;;;5.47;2.67;;;6.40;99.90;;;;;;5072862;28;20219;-60
2021/03/15 05:59:04;;;;;;;4.40;2.17;;;6.40;99.90;;;;;;4988873;28;20302;-60
2021/03/15 06:01:51;;;;;;;4.20;2.63;;;6.20;99.90;;;;;;4987539;28;20242;-60
2021/03/15 06:04:45;;;;;;;4.13;2.67;;;6.40;99.90;;;;;;5067657;28;20209;-60
2021/03/15 06:07:14;;;;;;;4.63;2.60;;;6.40;99.90;;;;;;5073833;28;20232;-60
2021/03/15 06:09:55;;;;;;;5.70;2.63;;;6.50;99.90;;;;;;5073378;28;20224;-60
2021/03/15 06:12:25;;;;;;;6.70;4.43;;;6.50;99.90;;;;;;5073280;28;20259;-60
2021/03/15 06:14:53;;;;;;;3.77;2.43;;;6.50;99.90;;;;;;5073088;28;20335;-61
2021/03/15 06:17:21;;;;;;;4.83;2.50;;;6.40;99.90;;;;;;5072782;28;20705;-61
2021/03/15 06:19:48;;;;;;;6.63;3.00;;;6.50;99.90;;;;;;5072900;28;20197;-59
2021/03/15 06:22:16;;;;;;;6.40;2.60;;;6.60;99.90;;;;;;5072791;28;20594;-59
2021/03/15 06:24:43;;;;;;;5.43;2.57;;;6.50;99.90;;;;;;5072412;28;20681;-59
2021/03/15 06:27:10;;;;;;;3.83;1.97;;;6.30;99.90;;;;;;5073017;28;20239;-60
2021/03/15 06:29:36;;;;;;;3.57;2.03;;;6.30;99.90;;;;;;5072511;28;20224;-60
2021/03/15 06:32:03;;;;;;;5.83;2.93;;;6.30;99.90;;;;;;5072280;28;20225;-60
2021/03/15 06:34:32;;;;;;;3.87;2.07;;;6.30;99.90;;;;;;5072544;28;20239;-60
2021/03/15 06:36:59;;;;;;;4.93;2.20;;;6.20;99.90;;;;;;5072284;28;20208;-60
2021/03/15 06:39:28;;;;;;;3.07;2.20;;;6.20;99.90;;;;;;5072359;28;20201;-60
2021/03/15 06:41:56;;;;;;;3.43;2.17;;;6.30;99.90;;;;;;5072168;28;20229;-60
2021/03/15 06:44:23;;;;;;;4.47;2.10;;;6.50;99.90;;;;;;5072309;28;20205;-60
2021/03/15 06:46:51;;;;;;;3.53;2.00;;;6.50;99.90;;;;;;5072487;28;20205;-60
2021/03/15 06:49:17;;;;;;;3.07;2.10;;;6.60;99.90;;;;;;5072429;28;20228;-60
2021/03/15 06:52:03;;;;;;;6.43;2.40;;;6.60;99.90;;;;;;5072377;28;20718;-61
2021/03/15 06:54:29;;;;;;;4.40;2.37;;;6.70;99.90;;;;;;5073043;28;20217;-60
2021/03/15 06:57:18;;;;;;;5.00;2.30;;;6.80;99.90;;;;;;5073154;28;20287;-60
2021/03/15 06:59:49;;;;;;;6.27;2.40;;;7.00;99.90;;;;;;5072958;28;20242;-60
2021/03/15 07:02:26;;;;;;;3.50;2.33;;;7.10;99.90;;;;;;5072929;28;20241;-60
2021/03/15 07:04:54;;;;;;;3.63;2.33;;;7.30;99.90;;;;;;5073396;28;20231;-60
2021/03/15 07:07:25;;;;;;;5.07;2.10;;;7.30;99.90;;;;;;5073236;28;20208;-60
2021/03/15 07:09:52;;;;;;;3.67;2.40;;;7.50;99.90;;;;;;5073249;28;20767;-60
2021/03/15 07:12:19;;;;;;;4.83;2.17;;;7.70;99.90;;;;;;5073502;28;20263;-60
2021/03/15 07:14:47;;;;;;;4.43;2.20;;;7.80;99.90;;;;;;5072631;28;20204;-60
2021/03/15 07:17:24;;;;;;;5.23;2.00;;;7.80;99.90;;;;;;5072629;28;20208;-60
2021/03/15 07:19:51;;;;;;;8.77;2.00;;;7.90;99.90;;;;;;5072548;28;20629;-60
2021/03/15 07:22:19;;;;;;;2.57;1.90;;;7.90;99.90;;;;;;5072357;28;20225;-60
2021/03/15 07:25:00;;;;;;;3.45;2.00;;;7.90;99.90;;;;;;5071275;28;20440;-61
2021/03/15 07:27:30;;;;;;;3.47;1.93;;;7.90;99.90;;;;;;5073453;28;20217;-62
2021/03/15 07:29:56;;;;;;;2.03;1.80;;;7.80;99.90;;;;;;5072793;28;20224;-62
2021/03/15 07:32:38;;;;;;;4.23;1.70;;;7.80;99.90;;;;;;5073007;28;20227;-62
2021/03/15 07:35:20;;;;;;;3.47;1.80;;;7.80;99.90;;;;;;5072771;28;20216;-62
2021/03/15 07:37:46;;;;;;;3.60;2.30;;;7.90;99.90;;;;;;5072673;28;20201;-63
2021/03/15 07:40:32;;;;;;;3.60;2.50;;;8.00;99.90;;;;;;5072172;28;20208;-63
2021/03/15 07:43:00;;;;;;;4.23;2.13;;;8.10;99.90;;;;;;5072167;28;20212;-63
2021/03/15 07:45:31;;;;;;;5.10;2.00;;;8.30;99.90;;;;;;5071654;28;20249;-62
2021/03/15 07:48:09;;;;;;;3.67;2.00;;;8.60;99.90;;;;;;5071373;28;20205;-65
2021/03/15 07:50:36;;;;;;;2.87;1.50;;;8.80;99.90;;;;;;5071889;28;20643;-64
2021/03/15 07:53:03;;;;;;;3.83;1.60;;;8.90;99.90;;;;;;5072248;28;20204;-65
2021/03/15 07:55:34;;;;;;;6.17;1.53;;;8.90;99.90;;;;;;5071771;28;20209;-64
2021/03/15 07:58:01;;;;;;;3.30;1.67;;;8.70;99.90;;;;;;5072223;28;20665;-64
2021/03/15 08:00:27;;;;;;;1.73;1.10;;;8.50;99.90;;;;;;5071550;28;20203;-63
2021/03/15 08:02:55;;;;;;;3.67;1.50;;;8.40;99.90;;;;;;5071553;28;20233;-63
2021/03/15 08:05:22;;;;;;;5.00;1.80;;;8.30;99.90;;;;;;5071265;28;20205;-62
2021/03/15 08:07:48;;;;;;;4.80;3.30;;;8.20;99.90;;;;;;5070954;28;20258;-61
2021/03/15 08:10:15;;;;;;;4.93;2.30;;;8.10;99.90;;;;;;5071120;28;20232;-62
2021/03/15 08:12:45;;;;;;;5.10;1.57;;;8.10;99.90;;;;;;5071324;28;20225;-60
2021/03/15 08:15:13;;;;;;;2.70;1.30;;;8.10;99.90;;;;;;5071487;28;20589;-60
2021/03/15 08:17:43;;;;;;;6.13;2.67;;;8.10;99.90;;;;;;5071200;28;20255;-59
2021/03/15 08:20:11;;;;;;;4.30;1.40;;;8.20;99.90;;;;;;5071395;28;20201;-60
2021/03/15 08:22:39;;;;;;;2.07;1.30;;;8.30;99.90;;;;;;5070985;28;20229;-60
2021/03/15 08:25:08;;;;;;;4.33;1.67;;;8.30;99.90;;;;;;5070997;28;20250;-60
2021/03/15 08:27:39;;;;;;;1.57;1.30;;;8.30;99.90;;;;;;5070790;28;20212;-61
2021/03/15 08:30:14;;;;;;;3.63;1.57;;;8.40;99.90;;;;;;5070842;28;20689;-60
2021/03/15 08:32:43;;;;;;;4.00;1.30;;;8.50;99.90;;;;;;5071159;28;20229;-60
2021/03/15 08:35:13;;;;;;;3.50;1.30;;;8.60;99.90;;;;;;5070834;28;20220;-62
2021/03/15 08:37:53;;;;;;;2.70;1.20;;;8.60;99.90;;;;;;5071532;28;20209;-63
2021/03/15 08:40:51;;;;;;;2.87;1.40;;;8.60;99.90;;;;;;5071101;28;20200;-62
2021/03/15 08:43:35;;;;;;;4.03;1.43;;;8.70;99.90;;;;;;4989043;28;20714;-63
2021/03/15 08:46:03;;;;;;;2.27;1.20;;;8.80;99.90;;;;;;5061828;28;20205;-63
2021/03/15 08:49:05;;;;;;;1.50;1.30;;;8.90;99.90;;;;;;5070826;28;20275;-63
2021/03/15 08:51:46;;;;;;;5.83;1.80;;;8.90;99.90;;;;;;5071011;28;20228;-62
2021/03/15 08:54:15;;;;;;;4.40;1.20;;;9.10;99.90;;;;;;5070910;28;20239;-63
2021/03/15 08:56:44;;;;;;;1.27;1.10;;;9.20;99.90;;;;;;5070597;28;20209;-61
2021/03/15 08:59:11;;;;;;;3.03;1.10;;;9.30;99.90;;;;;;5070875;28;20201;-62
2021/03/15 09:02:06;;;;;;;3.00;1.30;;;9.40;99.90;;;;;;5071339;28;20615;-63
2021/03/15 09:04:44;;;;;;;2.20;1.40;;;9.50;99.90;;;;;;5053228;28;20330;-63
2021/03/15 09:07:39;;;;;;;2.53;1.42;;;9.50;99.90;;;;;;5070689;28;20446;-62
2021/03/15 09:10:42;;;;;;;1.20;1.10;;;9.50;99.90;;;;;;5052751;28;20279;-62
2021/03/15 09:13:25;;;;;;;2.10;1.30;;;9.50;99.90;;;;;;5070390;28;20685;-61
2021/03/15 09:15:54;;;;;;;2.77;1.43;;;9.40;99.90;;;;;;5070881;28;20205;-62
2021/03/15 09:18:50;;;;;;;3.33;1.47;;;9.40;99.90;;;;;;5070504;28;20572;-61
2021/03/15 09:21:51;;;;;;;8.50;1.40;;;9.30;99.90;;;;;;5073832;28;20224;-62
2021/03/15 09:24:39;;;;;;;5.10;1.53;;;9.20;99.90;;;;;;5074075;28;20304;-61
2021/03/15 09:27:08;;;;;;;1.27;1.17;;;9.30;99.90;;;;;;5074064;28;20209;-63
2021/03/15 09:29:35;;;;;;;3.30;1.50;;;9.40;99.90;;;;;;5073744;28;20231;-62
2021/03/15 09:32:02;;;;;;;2.00;1.10;;;9.30;99.90;;;;;;5073997;28;20712;-63
2021/03/15 09:34:29;;;;;;;2.27;1.10;;;9.30;99.90;;;;;;5073824;28;20200;-62
2021/03/15 09:36:58;;;;;;;2.30;1.10;;;9.30;99.90;;;;;;5074013;28;20258;-63
2021/03/15 09:39:25;;;;;;;2.10;1.33;;;9.30;99.90;;;;;;5073951;28;20295;-63
2021/03/15 09:41:52;;;;;;;5.70;1.70;;;9.40;99.90;;;;;;5073727;28;20480;-64
2021/03/15 09:44:23;;;;;;;2.27;1.53;;;9.40;99.90;;;;;;5073471;28;20227;-63
2021/03/15 09:46:51;;;;;;;2.67;1.80;;;9.40;99.90;;;;;;5073708;28;20673;-64
2021/03/15 09:49:36;;;;;;;2.60;1.20;;;9.40;99.90;;;;;;5073947;28;20220;-63
2021/03/15 09:52:16;;;;;;;3.00;1.40;;;9.40;99.90;;;;;;5073819;28;20228;-63
2021/03/15 09:54:45;;;;;;;2.30;1.20;;;9.40;99.90;;;;;;5073333;28;20216;-67
2021/03/15 09:57:12;;;;;;;2.20;1.17;;;9.30;99.90;;;;;;5073741;28;20232;-63
2021/03/15 09:59:39;;;;;;;2.47;1.23;;;9.30;99.90;;;;;;5073751;28;20197;-61
2021/03/15 10:02:05;;;;;;;3.63;1.17;;;9.30;99.90;;;;;;5073751;28;20252;-61
2021/03/15 10:04:34;;;;;;;2.90;2.60;;;9.20;99.90;;;;;;5073996;28;20208;-61
2021/03/15 10:07:02;;;;;;;4.77;1.27;;;9.30;99.90;;;;;;5073830;28;20205;-62
2021/03/15 10:09:30;;;;;;;2.23;1.23;;;9.40;99.90;;;;;;5073186;28;20282;-62
2021/03/15 10:11:57;;;;;;;1.90;1.70;;;9.50;99.90;;;;;;5073600;28;20221;-62
2021/03/15 10:14:24;;;;;;;1.70;1.23;;;9.60;99.90;;;;;;5073340;28;20582;-62
2021/03/15 10:16:54;;;;;;;1.77;1.23;;;9.60;99.90;;;;;;5073313;28;20210;-63
2021/03/15 10:19:22;;;;;;;2.43;1.37;;;9.60;99.90;;;;;;5073209;28;20229;-63
2021/03/15 10:21:49;;;;;;;2.83;1.80;;;9.70;99.90;;;;;;5072999;28;20225;-62
2021/03/15 10:24:30;;;;;;;2.33;1.60;;;9.70;99.90;;;;;;5073080;28;20205;-62
2021/03/15 10:26:56;;;;;;;2.40;1.27;;;9.70;99.90;;;;;;5073137;28;20201;-62
2021/03/15 10:29:22;;;;;;;2.40;1.40;;;9.80;99.90;;;;;;5073149;28;20524;-63
2021/03/15 10:31:49;;;;;;;5.00;2.53;;;9.80;99.90;;;;;;5072497;28;20248;-61
2021/03/15 10:34:15;;;;;;;2.40;1.33;;;9.70;99.90;;;;;;5072937;28;20694;-62
2021/03/15 10:36:42;;;;;;;2.03;1.43;;;9.60;99.90;;;;;;5073229;28;20223;-62
2021/03/15 10:39:10;;;;;;;1.90;1.40;;;9.60;99.90;;;;;;5074244;28;20205;-61
2021/03/15 10:41:40;;;;;;;2.70;1.40;;;9.70;99.90;;;;;;5073954;28;20225;-62
2021/03/15 10:44:07;;;;;;;3.77;1.67;;;9.70;99.90;;;;;;5074213;28;20239;-62
2021/03/15 10:46:46;;;;;;;1.70;1.53;;;9.70;99.90;;;;;;5074371;28;20676;-62
2021/03/15 10:49:21;;;;;;;1.77;1.40;;;9.50;99.90;;;;;;5080147;28;20225;-62
2021/03/15 10:51:50;;;;;;;3.53;1.90;;;9.30;99.90;;;;;;5080392;28;20707;-62
2021/03/15 10:54:31;;;;;;;2.80;1.70;;;9.40;99.90;;;;;;5080762;28;20236;-62
2021/03/15 10:57:16;;;;;;;2.47;1.90;;;9.50;99.90;;;;;;5079156;28;20197;-60
2021/03/15 10:59:43;;;;;;;4.33;3.30;;;9.60;99.90;;;;;;5072851;28;20201;-61
2021/03/15 11:02:10;;;;;;;2.73;1.97;;;9.70;99.90;;;;;;5072873;28;20229;-62
2021/03/15 11:04:37;;;;;;;3.43;2.23;;;9.80;99.90;;;;;;5072161;28;20223;-61
2021/03/15 11:07:23;;;;;;;8.83;2.30;;;9.70;99.90;;;;;;5071993;28;20208;-61
2021/03/15 11:10:03;;;;;;;2.77;1.77;;;9.60;99.90;;;;;;5071659;28;20228;-61
2021/03/15 11:12:34;;;;;;;2.40;1.63;;;9.70;99.90;;;;;;5071944;28;20229;-61
2021/03/15 11:15:16;;;;;;;3.57;1.80;;;9.80;99.90;;;;;;5071630;28;20212;-62
2021/03/15 11:17:56;;;;;;;4.03;2.43;;;9.90;99.90;;;;;;5069006;28;20255;-62
2021/03/15 11:20:37;;;;;;;2.40;1.97;;;9.70;99.90;;;;;;5071360;28;20283;-62
2021/03/15 11:23:03;;;;;;;3.10;2.20;;;9.80;99.90;;;;;;5071519;28;20208;-62
2021/03/15 11:25:31;;;;;;;2.23;2.03;;;9.70;99.90;;;;;;5071819;28;20205;-62
2021/03/15 11:28:04;;;;;;;3.77;2.00;;;9.60;99.90;;;;;;5071839;28;20571;-64
2021/03/15 11:30:31;;;;;;;3.73;2.10;;;9.50;99.90;;;;;;5071585;28;20225;-62
2021/03/15 11:32:59;;;;;;;3.27;1.83;;;9.50;99.90;;;;;;5071328;28;20230;-61
2021/03/15 11:35:26;;;;;;;4.43;2.50;;;9.60;99.90;;;;;;5071352;28;20209;-61
2021/03/15 11:37:53;;;;;;;4.33;2.17;;;9.70;99.90;;;;;;5071141;28;20208;-61
2021/03/15 11:40:30;;;;;;;3.87;2.07;;;9.80;99.90;;;;;;5071256;28;20201;-61
2021/03/15 11:42:57;;;;;;;3.20;2.20;;;9.80;99.90;;;;;;5070028;28;20213;-61
2021/03/15 11:45:24;;;;;;;1.80;1.70;;;9.90;99.90;;;;;;5070728;28;20205;-62
2021/03/15 11:47:51;;;;;;;2.13;1.80;;;9.90;99.90;;;;;;5070788;28;20217;-62
2021/03/15 11:50:17;;;;;;;2.33;1.80;;;10.00;99.90;;;;;;5070889;28;20570;-61
2021/03/15 11:52:43;;;;;;;2.03;1.70;;;9.90;99.90;;;;;;5070744;28;20220;-61
2021/03/15 11:55:11;;;;;;;2.30;1.77;;;9.90;99.90;;;;;;5070722;28;20204;-62
2021/03/15 11:57:39;;;;;;;2.03;1.60;;;9.70;99.90;;;;;;5070746;28;20216;-64
2021/03/15 12:00:07;;;;;;;2.43;1.63;;;9.60;99.90;;;;;;5070981;28;20201;-64
2021/03/15 12:02:34;;;;;;;1.43;1.30;;;9.70;99.90;;;;;;5070496;28;20586;-64
2021/03/15 12:05:00;;;;;;;1.53;1.40;;;9.90;99.90;;;;;;5071011;28;20208;-64
2021/03/15 12:07:26;;;;;;;1.60;1.37;;;10.10;99.90;;;;;;5071177;28;20228;-64
2021/03/15 12:09:53;;;;;;;1.50;1.23;;;10.40;99.90;;;;;;5070564;28;20270;-64
2021/03/15 12:12:19;;;;;;;1.23;1.13;;;10.80;99.90;;;;;;5070609;28;20727;-64
2021/03/15 12:14:46;;;;;;;1.37;1.20;;;11.00;99.90;;;;;;5070936;28;20213;-65
2021/03/15 12:17:12;;;;;;;1.43;1.27;;;11.20;99.90;;;;;;5071144;28;20613;-64
2021/03/15 12:19:38;;;;;;;1.50;1.17;;;11.40;99.90;;;;;;5070980;28;20270;-64
2021/03/15 12:22:05;;;;;;;1.17;0.87;;;11.70;99.90;;;;;;5070913;28;20368;-64
2021/03/15 12:24:31;;;;;;;1.20;0.90;;;11.90;99.90;;;;;;5070810;28;20208;-64
2021/03/15 12:26:57;;;;;;;2.43;0.80;;;12.10;99.90;;;;;;5070722;28;20563;-64
2021/03/15 12:29:24;;;;;;;0.80;0.70;;;12.30;99.90;;;;;;5070486;28;20229;-64
2021/03/15 12:31:51;;;;;;;0.63;0.63;;;12.50;98.80;;;;;;5070865;28;20243;-64
2021/03/15 12:34:17;;;;;;;2.77;0.73;;;12.50;98.30;;;;;;5070823;28;20212;-64
2021/03/15 12:36:44;;;;;;;2.03;0.70;;;12.50;98.30;;;;;;5070676;28;20201;-64
2021/03/15 12:39:10;;;;;;;1.20;1.00;;;12.40;97.90;;;;;;5070705;28;20211;-64
2021/03/15 12:41:37;;;;;;;2.00;1.30;;;12.30;98.00;;;;;;5070549;28;20520;-65
2021/03/15 12:44:03;;;;;;;2.30;1.07;;;12.20;98.00;;;;;;5070976;28;20205;-64
2021/03/15 12:46:30;;;;;;;1.37;0.70;;;12.00;98.90;;;;;;5070774;28;20205;-65
2021/03/15 12:48:57;;;;;;;1.17;0.80;;;11.90;99.60;;;;;;5070964;28;20205;-65
2021/03/15 12:51:24;;;;;;;1.63;1.30;;;11.70;98.90;;;;;;5070667;28;20225;-65
2021/03/15 12:53:50;;;;;;;1.07;0.97;;;11.50;99.80;;;;;;5071034;28;20204;-65
2021/03/15 12:56:17;;;;;;;0.80;0.80;;;11.50;99.60;;;;;;5074783;28;20231;-59
2021/03/15 12:58:43;;;;;;;3.33;1.00;;;11.40;99.60;;;;;;5074232;28;20201;-64
2021/03/15 13:01:09;;;;;;;0.73;0.70;;;11.40;99.20;;;;;;5073962;28;20237;-63
2021/03/15 13:03:35;;;;;;;1.77;0.60;;;11.40;98.10;;;;;;5073873;28;20711;-62
2021/03/15 13:06:02;;;;;;;0.90;0.77;;;11.20;97.40;;;;;;5074081;28;20212;-63
2021/03/15 13:08:28;;;;;;;1.20;0.70;;;11.10;97.20;;;;;;5073984;28;20220;-62
2021/03/15 13:10:55;;;;;;;1.30;0.80;;;10.80;96.70;;;;;;5073966;28;20290;-63
2021/03/15 13:13:21;;;;;;;1.17;0.93;;;10.60;96.70;;;;;;5074206;28;20208;-61